Detall de PIREP

Printer-friendly versionPDF version

[2015/08/05 22:38:00]
Flight IATA:CT1004
Pilot Number:030
Company ICAO:CAT
Aircraft Type:B738/F
PAX:98
Departing Airport: LEMD
Destination Airport: LEBL
Alternate Airport:LEPA
Online: VATSIM
Route:PINAR UN870 PONEN UT600 CASPE
Flight Level:F300
No Slew and time accel
No pause
Crash detect
Detect pilot in Cockpit between each 30 and 45 minutes
22:38 Zero fuel Weight: 111402 Lbs, Fuel Weight: 11997 Lbs
22:38 VATSIM:LEMD 052230Z 03004KT CAVOK 27/02 Q1015 NOSIG
22:38 VATSIM:LEBL 052230Z 24005KT CAVOK 26/23 Q1014 NOSIG
22:40 Parking Brakes off
22:55 Take-off
22:55 Take off Weight: 122277 Lbs
22:55 Wind: 232º @ 011 Knots Heading: 358º
22:55 POS N40º 30´ 57´´ W003º 33´ 32´´
22:55 Flaps:3 at 171 Knots
22:55 Gear Up: 173 Knots
22:56 Flaps:1 at 200 Knots
22:58 Flaps:0 at 225 Knots
23:07 TOC
23:07 Fuel Weight: 8418 Lb
23:10 Wind:247º@027 Knots Heading: 076º Ground Speed: 519 Knots Altitude 30170 ft
23:14 TOD
23:14 Fuel Weight: 7506 Lb
23:14 TOC
23:14 Fuel Weight: 7450 Lb
23:16 TOD
23:16 Fuel Weight: 7148 Lb
23:25 Wind:246º@030 Knots Heading: 110º Ground Speed: 388 Knots Altitude 15816 ft
23:27 Flaps:1 at 246 Knots
23:28 Flaps:2 at 227 Knots
23:28 Flaps:3 at 227 Knots
23:38 Flaps:4 at 177 Knots
23:38 Gear Down: 168 Knots
23:38 Flaps:5 at 161 Knots
23:39 Flaps:6 at 160 Knots
23:39 Flaps:7 at 158 Knots
23:39 Flaps:8 at 149 Knots
23:40 Wind:202º@011 Knots Heading: 018º Ground Speed: 165 Knots Altitude 1095 ft
23:41 TouchDown:Rate -189 ft/min Speed: 127 Knots
23:41 VATSIM:LEBL 052330Z 29003KT CAVOK 25/19 Q1014 NOSIG
23:41 Land
23:41 Wind:202º@011 Knots
23:41 Heading: 017º
23:41 Flight Duration: 00:46
23:41 Landing Weight: 116544 Lbs
23:41 POS N41º 18´ 01´´ E002º 05´ 26´´
23:46 Parking brakes on
23:46 Block to Block Duration: 01:06
23:46 Final Fuel: 4777 Lbls
23:46 Spent Fuel: 7220 Lbls
23:46 Flight Length: 291 NM
23:46 TOD Land Length: 131 NM

Exportar CSV

Powered by Drupal - Modified by Danger4k